Terminal Aerodrome Forecast
Issued by NWS

Home | Current Version | Previous Version | Text Only | Print | Product List | Glossary On
Versions: 1 2 3 4 5 6 7 8 9 10 11 12 13 14 15 16 17 18 19
064
FTUS46 KMTR 260526
TAFMRY
TAF
KMRY 260526Z 2606/2706 19004KT P6SM SCT014
      TEMPO 2606/2608 BKN012
     FM260800 VRB03KT P6SM OVC010
     FM261800 29007KT P6SM FEW015
     FM270200 27005KT P6SM BKN012=

USA.gov is the U.S. government's official web portal to all federal, state and local government web resources and services.